createdAt,value
2017-07-14T00:01:57.941Z,74.10
2017-07-14T00:04:26.025Z,76.40
2017-07-14T00:06:54.133Z,79.10
2017-07-14T00:09:22.197Z,79.30
2017-07-14T00:11:50.284Z,81.30
2017-07-14T00:14:18.368Z,83.70
2017-07-14T00:16:46.459Z,84.30
2017-07-14T00:19:14.534Z,83.40
2017-07-14T00:21:42.620Z,82.30
2017-07-14T00:24:10.700Z,81.60
2017-07-14T00:26:38.776Z,83.30
2017-07-14T00:29:07.082Z,84.40
2017-07-14T00:31:35.163Z,82.80
2017-07-14T00:34:03.244Z,80.90
2017-07-14T00:36:31.320Z,80.90
2017-07-14T00:38:59.403Z,79.90
2017-07-14T00:41:27.490Z,83.40
2017-07-14T00:43:55.589Z,85.50
2017-07-14T00:46:23.668Z,86.60
2017-07-14T00:48:51.755Z,83.70
2017-07-14T00:51:19.849Z,82.40
2017-07-14T00:53:47.952Z,81.10
2017-07-14T00:56:16.033Z,79.90
2017-07-14T00:58:44.114Z,78.40
2017-07-14T01:01:12.199Z,77.60
2017-07-14T01:03:40.280Z,77.80
2017-07-14T01:06:08.371Z,79.00
2017-07-14T01:08:36.451Z,78.60
2017-07-14T01:11:04.531Z,78.00
2017-07-14T01:13:32.626Z,79.60
2017-07-14T01:16:00.712Z,79.10
2017-07-14T01:18:28.780Z,79.60
2017-07-14T01:20:56.872Z,81.60
2017-07-14T01:23:24.953Z,85.50
2017-07-14T01:25:53.050Z,86.30
2017-07-14T01:28:21.129Z,86.10
2017-07-14T01:30:49.212Z,83.30
2017-07-14T01:33:17.297Z,82.60
2017-07-14T01:35:45.368Z,83.30
2017-07-14T01:38:13.468Z,83.10
2017-07-14T01:40:41.548Z,82.90
2017-07-14T01:43:09.638Z,83.20
2017-07-14T01:45:37.729Z,84.70
2017-07-14T01:48:05.849Z,86.40
2017-07-14T01:50:33.930Z,85.90
2017-07-14T01:53:02.022Z,84.80
2017-07-14T01:55:30.107Z,83.90
2017-07-14T01:57:58.193Z,83.50
2017-07-14T02:00:26.278Z,86.70
2017-07-14T02:02:54.358Z,87.20
2017-07-14T02:05:22.444Z,88.40
2017-07-14T02:07:50.514Z,89.90
2017-07-14T02:10:18.612Z,90.10
2017-07-14T02:12:46.698Z,90.20
2017-07-14T02:15:14.796Z,89.50
2017-07-14T02:17:42.889Z,89.10
2017-07-14T02:20:10.971Z,88.70
2017-07-14T02:22:39.056Z,87.10
2017-07-14T02:25:07.147Z,85.40
2017-07-14T02:27:35.235Z,84.60
2017-07-14T02:30:03.318Z,84.70
2017-07-14T02:32:31.623Z,83.80
2017-07-14T02:34:59.710Z,86.70
2017-07-14T02:37:27.800Z,85.10
2017-07-14T02:39:55.892Z,85.50
2017-07-14T02:42:23.983Z,85.10
2017-07-14T02:44:52.072Z,86.80
2017-07-14T02:47:20.174Z,88.10
2017-07-14T02:49:48.265Z,87.10
2017-07-14T02:52:16.362Z,86.00
2017-07-14T02:54:44.434Z,87.70
2017-07-14T02:57:12.524Z,89.10
2017-07-14T02:59:40.620Z,90.60
2017-07-14T03:02:08.692Z,89.90
2017-07-14T03:04:36.776Z,91.40
2017-07-14T03:07:04.853Z,91.60
2017-07-14T03:09:32.938Z,93.70
2017-07-14T03:12:01.034Z,94.10
2017-07-14T03:14:29.114Z,93.90
2017-07-14T03:16:57.206Z,93.80
2017-07-14T03:19:25.280Z,93.60
2017-07-14T03:21:53.361Z,94.10
2017-07-14T03:24:21.446Z,93.10
2017-07-14T03:26:49.532Z,92.40
2017-07-14T03:29:17.612Z,93.40
2017-07-14T03:31:45.707Z,94.00
2017-07-14T03:34:13.779Z,93.10
2017-07-14T03:36:41.873Z,92.40
2017-07-14T03:39:09.960Z,91.00
2017-07-14T03:41:38.051Z,91.00
2017-07-14T03:44:06.140Z,91.70
2017-07-14T03:46:34.225Z,91.40
2017-07-14T03:49:02.312Z,91.50
2017-07-14T03:51:30.402Z,91.40
2017-07-14T03:53:58.479Z,90.90
2017-07-14T03:56:26.583Z,90.60
2017-07-14T03:58:54.687Z,90.20
2017-07-14T04:01:22.767Z,89.30
2017-07-14T04:03:50.904Z,88.70
2017-07-14T04:06:18.998Z,89.80
2017-07-14T04:08:47.090Z,89.40
2017-07-14T04:11:15.176Z,88.80
2017-07-14T04:13:43.267Z,87.80
2017-07-14T04:16:11.348Z,86.40
2017-07-14T04:18:39.441Z,86.00
2017-07-14T04:21:07.512Z,85.10
2017-07-14T04:23:35.613Z,86.60
2017-07-14T04:26:03.700Z,85.80
2017-07-14T04:28:31.800Z,86.10
2017-07-14T04:30:59.881Z,85.20
2017-07-14T04:33:27.957Z,86.30
2017-07-14T04:35:56.057Z,85.60
2017-07-14T04:38:24.143Z,83.90
2017-07-14T04:40:52.230Z,85.90
2017-07-14T04:43:20.308Z,89.70
2017-07-14T04:45:48.384Z,89.10
2017-07-14T04:48:16.473Z,89.30
2017-07-14T04:50:44.559Z,88.20
2017-07-14T04:53:12.650Z,88.60
2017-07-14T04:55:40.951Z,88.40
2017-07-14T04:58:09.036Z,90.00
2017-07-14T05:00:37.161Z,90.20
2017-07-14T05:03:05.241Z,91.00
2017-07-14T05:05:33.316Z,91.10
2017-07-14T05:08:01.402Z,91.20
2017-07-14T05:10:29.472Z,91.00
2017-07-14T05:12:57.551Z,91.00
2017-07-14T05:15:25.637Z,91.50
2017-07-14T05:17:53.735Z,92.00
2017-07-14T05:20:21.817Z,91.80
2017-07-14T05:22:49.902Z,91.50
2017-07-14T05:25:18.026Z,91.40
2017-07-14T05:27:46.132Z,90.60
2017-07-14T05:30:14.229Z,89.00
2017-07-14T05:32:42.308Z,88.40
2017-07-14T05:35:10.402Z,88.50
2017-07-14T05:37:38.479Z,85.30
2017-07-14T05:40:06.709Z,82.80
2017-07-14T05:42:34.785Z,76.70
2017-07-14T05:45:02.863Z,77.30
2017-07-14T05:47:30.948Z,74.50
2017-07-14T05:49:59.032Z,70.30
2017-07-14T05:52:27.127Z,68.20
2017-07-14T05:54:55.220Z,68.90
2017-07-14T05:57:23.303Z,67.80
2017-07-14T05:59:51.400Z,65.00
2017-07-14T06:02:19.484Z,64.20
2017-07-14T06:04:47.576Z,61.40
2017-07-14T06:07:15.671Z,60.90
2017-07-14T06:09:43.751Z,59.90
2017-07-14T06:12:11.843Z,61.30
2017-07-14T06:14:39.924Z,59.40
2017-07-14T06:17:08.011Z,59.00
2017-07-14T06:19:36.083Z,58.90
2017-07-14T06:22:04.179Z,60.70
2017-07-14T06:24:32.259Z,59.30
2017-07-14T06:27:00.336Z,59.40
2017-07-14T06:29:28.420Z,61.10
2017-07-14T06:31:56.507Z,60.50
2017-07-14T06:34:24.588Z,61.40
2017-07-14T06:36:52.668Z,59.90
2017-07-14T06:39:20.764Z,59.30
2017-07-14T06:41:48.843Z,58.00
2017-07-14T06:44:16.920Z,57.10
2017-07-14T06:46:45.008Z,56.80
2017-07-14T06:49:13.085Z,60.00
2017-07-14T06:51:41.161Z,59.60
2017-07-14T06:54:09.251Z,56.60
2017-07-14T06:56:37.349Z,56.10
2017-07-14T06:59:05.438Z,54.40
2017-07-14T07:01:33.507Z,54.40
2017-07-14T07:04:01.591Z,53.50
2017-07-14T07:06:29.684Z,53.90
2017-07-14T07:08:57.765Z,52.40
2017-07-14T07:11:25.846Z,50.60
2017-07-14T07:13:53.924Z,51.60
2017-07-14T07:16:22.003Z,52.30
2017-07-14T07:18:50.093Z,52.40
2017-07-14T07:21:18.168Z,50.30
2017-07-14T07:23:46.255Z,49.00
2017-07-14T07:26:14.336Z,48.20
2017-07-14T07:28:42.420Z,51.00
2017-07-14T07:31:10.503Z,50.40
2017-07-14T07:33:38.589Z,52.20
2017-07-14T07:36:06.662Z,52.80
2017-07-14T07:38:34.751Z,51.10
2017-07-14T07:41:02.829Z,52.50
2017-07-14T07:43:30.917Z,50.60
2017-07-14T07:45:59.800Z,50.20
2017-07-14T07:48:33.560Z,49.10
2017-07-14T07:51:01.640Z,50.30
2017-07-14T07:53:29.732Z,50.00
2017-07-14T07:55:57.836Z,50.80
2017-07-14T07:58:25.923Z,50.20
2017-07-14T08:00:54.003Z,47.20
2017-07-14T08:03:22.091Z,45.50
2017-07-14T08:05:50.157Z,44.00
2017-07-14T08:08:18.233Z,43.90
2017-07-14T08:10:46.315Z,45.30
2017-07-14T08:13:14.423Z,42.20
2017-07-14T08:15:42.505Z,44.60
2017-07-14T08:18:10.594Z,45.20
2017-07-14T08:20:38.696Z,46.00
2017-07-14T08:23:06.796Z,46.80
2017-07-14T08:25:34.877Z,45.30
2017-07-14T08:28:02.969Z,44.90
2017-07-14T08:30:31.041Z,44.30
2017-07-14T08:32:59.124Z,43.70
2017-07-14T08:35:27.209Z,41.90
2017-07-14T08:37:55.290Z,43.80
2017-07-14T08:40:23.372Z,40.90
2017-07-14T08:42:51.461Z,39.10
2017-07-14T08:45:19.544Z,40.30
2017-07-14T08:47:47.840Z,41.10
2017-07-14T08:50:15.918Z,36.40
2017-07-14T08:52:44.001Z,36.80
2017-07-14T08:55:12.198Z,40.50
2017-07-14T08:57:40.280Z,37.60
2017-07-14T09:00:08.579Z,37.30
2017-07-14T09:02:36.655Z,37.30
2017-07-14T09:05:04.747Z,36.30
2017-07-14T09:07:32.832Z,38.80
2017-07-14T09:10:00.917Z,40.30
2017-07-14T09:12:28.997Z,39.30
2017-07-14T09:14:57.078Z,38.70
2017-07-14T09:17:25.157Z,37.90
2017-07-14T09:19:53.240Z,31.20
2017-07-14T09:22:21.319Z,30.10
2017-07-14T09:24:49.405Z,29.80
2017-07-14T09:27:17.492Z,30.30
2017-07-14T09:29:45.572Z,28.40
2017-07-14T09:32:13.665Z,28.90
2017-07-14T09:34:41.746Z,30.20
2017-07-14T09:37:10.234Z,31.60
2017-07-14T09:39:38.316Z,30.60
2017-07-14T09:42:06.409Z,29.40
2017-07-14T09:44:34.484Z,29.50
2017-07-14T09:47:02.577Z,32.00
2017-07-14T09:49:30.667Z,29.70
2017-07-14T09:51:58.787Z,30.90
2017-07-14T09:54:26.878Z,30.00
2017-07-14T09:56:54.960Z,29.10
2017-07-14T09:59:23.047Z,28.10
2017-07-14T10:01:51.128Z,29.40
2017-07-14T10:04:19.209Z,29.60
2017-07-14T10:06:47.295Z,29.10
2017-07-14T10:09:15.381Z,32.10
2017-07-14T10:11:43.454Z,29.80
2017-07-14T10:14:11.555Z,30.00
2017-07-14T10:16:39.636Z,31.10
2017-07-14T10:19:07.716Z,29.10
2017-07-14T10:21:35.804Z,28.60
2017-07-14T10:24:03.893Z,27.50
2017-07-14T10:26:31.997Z,26.30
2017-07-14T10:29:00.076Z,27.20
2017-07-14T10:31:28.165Z,28.00
2017-07-14T10:33:56.248Z,27.50
2017-07-14T10:36:24.332Z,28.00
2017-07-14T10:38:52.408Z,28.10
2017-07-14T10:41:20.497Z,27.60
2017-07-14T10:43:48.574Z,28.50
2017-07-14T10:46:16.659Z,28.80
2017-07-14T10:48:44.740Z,28.70
2017-07-14T10:51:12.840Z,29.20
2017-07-14T10:53:40.924Z,29.40
2017-07-14T10:56:09.020Z,28.80
2017-07-14T10:58:37.105Z,29.20
2017-07-14T11:01:05.182Z,28.50
2017-07-14T11:03:33.271Z,28.40
2017-07-14T11:06:01.342Z,28.80
2017-07-14T11:08:29.429Z,28.10
2017-07-14T11:10:57.504Z,29.90
2017-07-14T11:13:25.586Z,31.00
2017-07-14T11:15:53.661Z,30.20
2017-07-14T11:18:21.733Z,29.00
2017-07-14T11:20:49.827Z,28.30
2017-07-14T11:23:17.920Z,28.10
2017-07-14T11:25:45.998Z,30.30
2017-07-14T11:28:14.089Z,31.10
2017-07-14T11:30:42.169Z,33.90
2017-07-14T11:33:10.236Z,34.40
2017-07-14T11:35:38.330Z,35.40
2017-07-14T11:38:06.423Z,37.10
2017-07-14T11:40:34.505Z,35.00
2017-07-14T11:43:02.613Z,35.20
2017-07-14T11:45:30.673Z,34.90
2017-07-14T11:47:58.749Z,34.20
2017-07-14T11:50:26.855Z,34.50
2017-07-14T11:52:54.935Z,35.50
2017-07-14T11:55:23.025Z,36.10
2017-07-14T11:57:51.105Z,35.10
2017-07-14T12:00:19.201Z,34.20
2017-07-14T12:02:47.280Z,34.80
2017-07-14T12:05:15.357Z,36.60
2017-07-14T12:07:43.442Z,36.80
2017-07-14T12:10:11.868Z,37.60
2017-07-14T12:12:39.949Z,38.60
2017-07-14T12:15:08.030Z,38.80
2017-07-14T12:17:36.125Z,39.50
2017-07-14T12:20:04.208Z,38.70
2017-07-14T12:22:32.291Z,38.50
2017-07-14T12:25:00.371Z,39.40
2017-07-14T12:30:02.904Z,41.60
2017-07-14T12:32:31.008Z,41.90
2017-07-14T12:34:59.080Z,42.40
2017-07-14T12:37:27.172Z,41.50
2017-07-14T12:39:55.256Z,39.30
2017-07-14T12:42:23.332Z,39.00
2017-07-14T12:44:51.417Z,40.20
2017-07-14T12:47:19.500Z,41.10
2017-07-14T12:49:47.580Z,40.90
2017-07-14T12:52:15.656Z,40.20
2017-07-14T12:54:43.740Z,39.50
2017-07-14T12:57:11.829Z,41.30
2017-07-14T12:59:39.926Z,39.70
2017-07-14T13:02:07.997Z,38.80
2017-07-14T13:04:36.081Z,39.80
2017-07-14T13:07:04.173Z,40.90
2017-07-14T13:09:32.257Z,41.40
2017-07-14T13:12:00.348Z,43.70
2017-07-14T13:14:28.436Z,44.90
2017-07-14T13:16:56.515Z,46.30
2017-07-14T13:19:24.598Z,47.10
2017-07-14T13:21:52.688Z,46.80
2017-07-14T13:24:20.772Z,46.40
2017-07-14T13:26:48.868Z,46.10
2017-07-14T13:29:16.948Z,46.30
2017-07-14T13:31:45.041Z,45.80
2017-07-14T13:34:13.130Z,46.80
2017-07-14T13:36:41.200Z,46.70
2017-07-14T13:39:09.286Z,47.50
2017-07-14T13:41:37.364Z,46.80
2017-07-14T13:44:05.444Z,47.30
2017-07-14T13:46:33.541Z,47.10
2017-07-14T13:49:01.641Z,47.10
2017-07-14T13:51:29.722Z,46.30
2017-07-14T13:53:57.799Z,47.10
2017-07-14T13:56:25.890Z,46.40
2017-07-14T13:58:53.970Z,47.60
2017-07-14T14:01:22.044Z,47.10
2017-07-14T14:03:50.129Z,48.60
2017-07-14T14:06:18.227Z,49.40
2017-07-14T14:08:46.301Z,50.50
2017-07-14T14:11:14.397Z,53.30
2017-07-14T14:13:42.479Z,55.90
2017-07-14T14:16:10.554Z,58.30
2017-07-14T14:18:38.644Z,59.60
2017-07-14T14:21:06.717Z,57.80
2017-07-14T14:23:34.811Z,55.70
2017-07-14T14:26:02.901Z,56.00
2017-07-14T14:28:30.984Z,54.40
2017-07-14T14:30:59.061Z,53.50
2017-07-14T14:33:27.173Z,53.80
2017-07-14T14:35:55.255Z,52.00
2017-07-14T14:38:23.341Z,49.90
2017-07-14T14:40:51.424Z,50.00
2017-07-14T14:43:19.511Z,50.20
2017-07-14T14:45:47.601Z,49.20
2017-07-14T14:48:15.681Z,48.00
2017-07-14T14:50:43.762Z,47.50
2017-07-14T14:53:11.834Z,47.50
2017-07-14T14:55:39.908Z,47.40
2017-07-14T14:58:07.996Z,46.00
2017-07-14T15:00:36.076Z,44.00
2017-07-14T15:03:04.159Z,44.90
2017-07-14T15:05:32.245Z,44.70
2017-07-14T15:08:00.332Z,45.30
2017-07-14T15:10:28.412Z,45.30
2017-07-14T15:12:56.508Z,45.00
2017-07-14T15:15:24.592Z,45.50
2017-07-14T15:17:52.684Z,44.80
2017-07-14T15:20:20.756Z,45.50
2017-07-14T15:22:48.830Z,45.40
2017-07-14T15:25:16.915Z,45.80
2017-07-14T15:27:44.996Z,45.90
2017-07-14T15:30:13.088Z,46.20
2017-07-14T15:32:41.172Z,46.50
2017-07-14T15:35:09.257Z,48.80
2017-07-14T15:37:37.569Z,53.90
2017-07-14T15:40:05.648Z,60.90
2017-07-14T15:42:33.719Z,65.70
2017-07-14T15:45:01.799Z,68.90
2017-07-14T15:47:29.877Z,71.10
2017-07-14T15:49:57.962Z,75.90
2017-07-14T15:52:26.032Z,79.60
2017-07-14T15:54:54.118Z,81.60
2017-07-14T15:57:22.198Z,83.50
2017-07-14T15:59:50.273Z,89.20
2017-07-14T16:02:18.374Z,91.50
2017-07-14T16:04:46.450Z,93.80
2017-07-14T16:07:14.531Z,92.60
2017-07-14T16:09:42.611Z,91.70
2017-07-14T16:12:10.687Z,91.50
2017-07-14T16:14:38.759Z,91.40
2017-07-14T16:17:06.860Z,91.00
2017-07-14T16:19:34.943Z,88.50
2017-07-14T16:22:03.032Z,87.30
2017-07-14T16:24:31.115Z,87.10
2017-07-14T16:26:59.196Z,86.00
2017-07-14T16:29:27.280Z,86.50
2017-07-14T16:31:55.363Z,87.10
2017-07-14T16:34:23.442Z,85.20
2017-07-14T16:36:51.519Z,86.40
2017-07-14T16:39:19.597Z,84.80
2017-07-14T16:41:47.673Z,83.50
2017-07-14T16:44:15.755Z,81.80
2017-07-14T16:46:43.834Z,80.80
2017-07-14T16:49:11.916Z,82.40
2017-07-14T16:51:39.999Z,80.10
2017-07-14T16:54:08.077Z,79.70
2017-07-14T16:56:36.155Z,76.40
2017-07-14T16:59:04.242Z,78.70
2017-07-14T17:01:32.325Z,86.10
2017-07-14T17:04:00.399Z,89.50
2017-07-14T17:06:28.479Z,86.40
2017-07-14T17:08:56.570Z,85.10
2017-07-14T17:11:24.656Z,86.60
2017-07-14T17:13:52.750Z,83.20
2017-07-14T17:16:20.832Z,81.70
2017-07-14T17:18:48.908Z,81.60
2017-07-14T17:21:16.992Z,86.30
2017-07-14T17:23:45.072Z,84.40
2017-07-14T17:26:13.150Z,84.40
2017-07-14T17:28:41.233Z,83.30
2017-07-14T17:31:09.313Z,84.30
2017-07-14T17:33:37.398Z,84.50
2017-07-14T17:36:05.479Z,79.80
2017-07-14T17:38:33.590Z,80.60
2017-07-14T17:41:01.665Z,80.70
2017-07-14T17:43:29.748Z,79.80
2017-07-14T17:45:57.842Z,79.00
2017-07-14T17:48:25.923Z,79.00
2017-07-14T17:50:53.997Z,80.20
2017-07-14T17:53:22.088Z,79.80
2017-07-14T17:55:50.175Z,83.40
2017-07-14T17:58:18.249Z,84.00
2017-07-14T18:00:46.363Z,79.70
2017-07-14T18:03:14.412Z,82.50
2017-07-14T18:05:42.491Z,80.40
2017-07-14T18:08:10.572Z,84.30
2017-07-14T18:10:38.660Z,85.30
2017-07-14T18:13:06.740Z,85.10
2017-07-14T18:15:34.826Z,84.00
2017-07-14T18:18:02.900Z,85.00
2017-07-14T18:20:30.985Z,85.60
2017-07-14T18:22:59.056Z,81.80
2017-07-14T18:25:27.141Z,83.90
2017-07-14T18:27:55.216Z,81.40
2017-07-14T18:30:23.448Z,83.60
2017-07-14T18:32:51.550Z,85.00
2017-07-14T18:35:19.916Z,84.70
2017-07-14T18:37:48.279Z,84.10
2017-07-14T18:40:16.370Z,83.20
2017-07-14T18:42:44.456Z,79.90
2017-07-14T18:45:12.542Z,79.70
2017-07-14T18:47:40.623Z,80.60
2017-07-14T18:50:08.697Z,80.90
2017-07-14T18:52:36.832Z,83.20
2017-07-14T18:55:04.973Z,84.40
2017-07-14T18:57:33.113Z,84.40
2017-07-14T19:00:01.214Z,83.80
2017-07-14T19:02:29.525Z,84.30
2017-07-14T19:04:57.876Z,84.10
2017-07-14T19:07:26.040Z,83.50
2017-07-14T19:09:54.134Z,83.90
2017-07-14T19:12:22.248Z,82.60
2017-07-14T19:14:50.519Z,84.10
2017-07-14T19:17:18.660Z,84.30
2017-07-14T19:19:46.741Z,85.50
2017-07-14T19:22:14.850Z,86.90
2017-07-14T19:24:43.100Z,85.80
2017-07-14T19:27:11.265Z,86.30
2017-07-14T19:29:39.443Z,88.20
2017-07-14T19:32:07.770Z,90.20
2017-07-14T19:34:36.027Z,90.60
2017-07-14T19:37:04.177Z,90.60
2017-07-14T19:39:32.511Z,91.20
2017-07-14T19:42:00.788Z,92.20
2017-07-14T19:44:29.005Z,92.60
2017-07-14T19:46:57.340Z,92.90
2017-07-14T19:49:25.511Z,93.20
2017-07-14T19:51:54.287Z,93.40
2017-07-14T19:54:22.429Z,93.30
2017-07-14T19:56:50.881Z,94.00
2017-07-14T19:59:19.090Z,94.80
2017-07-14T20:01:47.320Z,95.30
2017-07-14T20:04:15.507Z,96.00
2017-07-14T20:06:43.757Z,96.10
2017-07-14T20:09:12.192Z,96.80
2017-07-14T20:11:40.480Z,96.90
2017-07-14T20:14:08.584Z,95.90
2017-07-14T20:16:36.821Z,96.20
2017-07-14T20:19:04.909Z,95.50
2017-07-14T20:21:33.160Z,95.40
2017-07-14T20:24:01.248Z,95.40
2017-07-14T20:26:29.331Z,94.80
2017-07-14T20:28:57.407Z,94.40
2017-07-14T20:31:25.493Z,93.60
2017-07-14T20:33:53.574Z,93.00
2017-07-14T20:36:21.651Z,93.10
2017-07-14T20:38:49.741Z,92.80
2017-07-14T20:41:17.831Z,91.70
2017-07-14T20:43:45.992Z,91.10
2017-07-14T20:46:14.093Z,91.20
2017-07-14T20:48:42.158Z,90.70
2017-07-14T20:51:10.247Z,91.30
2017-07-14T20:53:38.334Z,91.00
2017-07-14T20:56:06.419Z,91.10
2017-07-14T20:58:34.491Z,91.00
2017-07-14T21:01:02.615Z,91.20
2017-07-14T21:03:30.702Z,91.10
2017-07-14T21:05:58.884Z,91.70
2017-07-14T21:08:26.965Z,91.90
2017-07-14T21:10:55.069Z,92.30
2017-07-14T21:13:23.240Z,91.90
2017-07-14T21:15:51.323Z,91.90
2017-07-14T21:18:19.408Z,91.20
2017-07-14T21:20:47.491Z,90.90
2017-07-14T21:23:15.570Z,91.10
2017-07-14T21:25:43.654Z,90.10
2017-07-14T21:28:11.793Z,89.10
2017-07-14T21:30:39.884Z,88.90
2017-07-14T21:33:07.968Z,89.80
2017-07-14T21:35:36.052Z,92.90
2017-07-14T21:38:04.149Z,97.40
2017-07-14T21:40:32.242Z,97.80
2017-07-14T21:43:00.325Z,97.80
2017-07-14T21:45:28.422Z,98.60
2017-07-14T21:47:56.513Z,98.50
2017-07-14T21:50:24.620Z,99.40
2017-07-14T21:52:52.705Z,97.70
2017-07-14T21:55:20.830Z,98.30
2017-07-14T21:57:48.925Z,98.80
2017-07-14T22:00:17.148Z,98.00
2017-07-14T22:02:45.296Z,98.50
2017-07-14T22:05:13.462Z,98.50
2017-07-14T22:07:41.540Z,97.60
2017-07-14T22:10:09.631Z,98.50
2017-07-14T22:12:37.717Z,97.50
2017-07-14T22:15:05.811Z,96.40
2017-07-14T22:17:33.936Z,99.70
2017-07-14T22:20:02.015Z,99.90
2017-07-14T22:22:30.095Z,99.90
2017-07-14T22:24:58.192Z,98.90
2017-07-14T22:27:26.292Z,97.70
2017-07-14T22:29:54.377Z,98.30
2017-07-14T22:32:22.464Z,98.30
2017-07-14T22:34:50.552Z,98.80
2017-07-14T22:37:18.653Z,97.60
2017-07-14T22:39:46.750Z,98.20
2017-07-14T22:42:14.832Z,99.00
2017-07-14T22:44:42.924Z,98.50
2017-07-14T22:47:11.026Z,97.70
2017-07-14T22:49:39.125Z,98.90
2017-07-14T22:52:07.204Z,98.70
2017-07-14T22:54:35.292Z,98.90
2017-07-14T22:57:03.383Z,98.80
2017-07-14T22:59:31.490Z,99.00
2017-07-14T23:01:59.716Z,99.90
2017-07-14T23:04:27.813Z,99.50
2017-07-14T23:06:55.896Z,99.90
2017-07-14T23:09:24.002Z,99.90
2017-07-14T23:11:52.097Z,99.90
2017-07-14T23:14:20.190Z,99.90
2017-07-14T23:16:48.267Z,99.90
2017-07-14T23:19:16.384Z,99.90
2017-07-14T23:21:44.477Z,99.90
2017-07-14T23:24:12.563Z,99.90
2017-07-14T23:26:40.660Z,99.90
2017-07-14T23:29:08.744Z,99.90
2017-07-14T23:31:36.836Z,99.90
2017-07-14T23:34:04.919Z,99.90
2017-07-14T23:36:33.012Z,99.90
2017-07-14T23:39:01.096Z,99.90
2017-07-14T23:41:29.184Z,99.90
2017-07-14T23:43:57.272Z,99.90
2017-07-14T23:46:25.373Z,99.90
2017-07-14T23:48:53.455Z,99.90
2017-07-14T23:51:21.536Z,99.90
2017-07-14T23:53:49.630Z,99.90
2017-07-14T23:56:17.716Z,99.90
2017-07-14T23:58:45.816Z,99.90
